Time;durP1;ratioP1;P1;durP2;ratioP2;P2;SDS_P1;SDS_P2;PMS_P1;PMS_P2;Temp;Humidity;BMP_temperature;BMP_pressure;BME280_temperature;BME280_humidity;BME280_pressure;Samples;Min_cycle;Max_cycle;Signal;HPM_P1;HPM_P2
2023/07/23 00:02:12;;;;;;;;;;;;;;;;;;5042898;28;20367;-69
2023/07/23 00:04:38;;;;;;;;;;;;;;;;;;5044135;28;19935;-65
2023/07/23 00:07:04;;;;;;;;;;;;;;;;;;5048279;28;19952;-65
2023/07/23 00:09:30;;;;;;;;;;;;;;;;;;5042318;28;19929;-65
2023/07/23 00:11:56;;;;;;;;;;;;;;;;;;5040903;28;20561;-65
2023/07/23 00:14:21;;;;;;;;;;;;;;;;;;5034377;28;20298;-65
2023/07/23 00:16:47;;;;;;;;;;;;;;;;;;5047966;28;20015;-66
2023/07/23 00:19:19;;;;;;;;;;;;;;;;;;5047204;28;20012;-66
2023/07/23 00:21:45;;;;;;;;;;;;;;;;;;5048009;28;20384;-66
2023/07/23 00:24:10;;;;;;;;;;;;;;;;;;5047916;28;19964;-65
2023/07/23 00:26:36;;;;;;;;;;;;;;;;;;5034489;28;19967;-65
2023/07/23 00:29:02;;;;;;;;;;;;;;;;;;5049176;28;20003;-65
2023/07/23 00:31:29;;;;;;;;;;;;;;;;;;5045650;28;19948;-65
2023/07/23 00:33:55;;;;;;;;;;;;;;;;;;5049439;28;19964;-65
2023/07/23 00:36:21;;;;;;;;;;;;;;;;;;5049259;28;19971;-65
2023/07/23 00:38:47;;;;;;;;;;;;;;;;;;5048992;28;19925;-65
2023/07/23 00:41:13;;;;;;;;;;;;;;;;;;5043931;28;19986;-65
2023/07/23 00:43:38;;;;;;;;;;;;;;;;;;5036332;28;19924;-65
2023/07/23 00:46:04;;;;;;;;;;;;;;;;;;5045574;28;19964;-65
2023/07/23 00:48:30;;;;;;;;;;;;;;;;;;5049997;28;20015;-65
2023/07/23 00:50:56;;;;;;;;;;;;;;;;;;5049985;28;20043;-65
2023/07/23 00:53:23;;;;;;;;;;;;;;;;;;5046911;28;19931;-65
2023/07/23 00:55:49;;;;;;;;;;;;;;;;;;5048775;28;20350;-65
2023/07/23 00:58:15;;;;;;;;;;;;;;;;;;5045792;28;19927;-65
2023/07/23 01:00:41;;;;;;;;;;;;;;;;;;5047527;28;19925;-65
2023/07/23 01:03:07;;;;;;;;;;;;;;;;;;5047315;28;20282;-65
2023/07/23 01:05:33;;;;;;;;;;;;;;;;;;5049546;28;19924;-65
2023/07/23 01:07:59;;;;;;;;;;;;;;;;;;5052667;28;19924;-65
2023/07/23 01:10:25;;;;;;;;;;;;;;;;;;5052879;28;19932;-66
2023/07/23 01:12:51;;;;;;;;;;;;;;;;;;5053112;28;19931;-66
2023/07/23 01:15:17;;;;;;;;;;;;;;;;;;5039674;28;19925;-65
2023/07/23 01:17:43;;;;;;;;;;;;;;;;;;5051369;28;20413;-65
2023/07/23 01:20:09;;;;;;;;;;;;;;;;;;5053223;28;19928;-65
2023/07/23 01:22:35;;;;;;;;;;;;;;;;;;5044172;28;19920;-65
2023/07/23 01:25:01;;;;;;;;;;;;;;;;;;5052949;28;19931;-65
2023/07/23 01:27:26;;;;;;;;;;;;;;;;;;5051617;28;19931;-65
2023/07/23 01:29:52;;;;;;;;;;;;;;;;;;5052420;28;19948;-66
2023/07/23 01:32:18;;;;;;;;;;;;;;;;;;5046327;28;19975;-65
2023/07/23 01:34:44;;;;;;;;;;;;;;;;;;5045039;28;19972;-65
2023/07/23 01:37:10;;;;;;;;;;;;;;;;;;5049171;28;20030;-65
2023/07/23 01:39:36;;;;;;;;;;;;;;;;;;5051825;28;19939;-65
2023/07/23 01:42:02;;;;;;;;;;;;;;;;;;5050254;28;19920;-65
2023/07/23 01:44:28;;;;;;;;;;;;;;;;;;5050831;28;19935;-65
2023/07/23 01:46:54;;;;;;;;;;;;;;;;;;5043002;28;19929;-65
2023/07/23 01:49:20;;;;;;;;;;;;;;;;;;5050577;28;19920;-65
2023/07/23 01:51:45;;;;;;;;;;;;;;;;;;5051653;28;19928;-65
2023/07/23 01:54:11;;;;;;;;;;;;;;;;;;5050693;28;19924;-65
2023/07/23 01:56:37;;;;;;;;;;;;;;;;;;5051612;28;19925;-65
2023/07/23 01:59:04;;;;;;;;;;;;;;;;;;5051460;28;20478;-65
2023/07/23 02:01:30;;;;;;;;;;;;;;;;;;5051972;28;19947;-65
2023/07/23 02:03:56;;;;;;;;;;;;;;;;;;5048417;28;20363;-65
2023/07/23 02:06:22;;;;;;;;;;;;;;;;;;5031548;28;19928;-65
2023/07/23 02:08:48;;;;;;;;;;;;;;;;;;5044783;28;19921;-65
2023/07/23 02:11:14;;;;;;;;;;;;;;;;;;5051721;28;19921;-65
2023/07/23 02:13:39;;;;;;;;;;;;;;;;;;5047651;28;19924;-65
2023/07/23 02:16:05;;;;;;;;;;;;;;;;;;5049605;28;19947;-65
2023/07/23 02:18:31;;;;;;;;;;;;;;;;;;5034213;28;19997;-65
2023/07/23 02:20:57;;;;;;;;;;;;;;;;;;5051035;28;19964;-65
2023/07/23 02:23:23;;;;;;;;;;;;;;;;;;5050041;28;19931;-65
2023/07/23 02:25:49;;;;;;;;;;;;;;;;;;5048084;28;20362;-65
2023/07/23 02:28:15;;;;;;;;;;;;;;;;;;5048219;28;19921;-65
2023/07/23 02:30:41;;;;;;;;;;;;;;;;;;5048508;28;19931;-66
2023/07/23 02:33:07;;;;;;;;;;;;;;;;;;5050765;28;20839;-65
2023/07/23 02:35:33;;;;;;;;;;;;;;;;;;5046198;28;19921;-65
2023/07/23 02:37:58;;;;;;;;;;;;;;;;;;5045110;28;19968;-65
2023/07/23 02:40:24;;;;;;;;;;;;;;;;;;5046891;28;20011;-65
2023/07/23 02:42:50;;;;;;;;;;;;;;;;;;5048519;28;19924;-65
2023/07/23 02:45:16;;;;;;;;;;;;;;;;;;5048581;28;19928;-65
2023/07/23 02:47:42;;;;;;;;;;;;;;;;;;5044606;28;19931;-65
2023/07/23 02:50:08;;;;;;;;;;;;;;;;;;5049749;28;19999;-65
2023/07/23 02:52:34;;;;;;;;;;;;;;;;;;5044990;28;19925;-65
2023/07/23 02:55:00;;;;;;;;;;;;;;;;;;5045873;28;20290;-65
2023/07/23 02:57:25;;;;;;;;;;;;;;;;;;5047318;28;19928;-65
2023/07/23 02:59:51;;;;;;;;;;;;;;;;;;5041481;28;19924;-65
2023/07/23 03:02:18;;;;;;;;;;;;;;;;;;5046886;28;19925;-65
2023/07/23 03:04:44;;;;;;;;;;;;;;;;;;5046040;28;19960;-65
2023/07/23 03:07:10;;;;;;;;;;;;;;;;;;5046109;28;19970;-65
2023/07/23 03:09:36;;;;;;;;;;;;;;;;;;5044552;28;19924;-66
2023/07/23 03:12:02;;;;;;;;;;;;;;;;;;5045847;28;19925;-65
2023/07/23 03:14:28;;;;;;;;;;;;;;;;;;5046358;28;19974;-65
2023/07/23 03:16:54;;;;;;;;;;;;;;;;;;5044060;28;19929;-65
2023/07/23 03:19:20;;;;;;;;;;;;;;;;;;5044626;28;19983;-65
2023/07/23 03:21:46;;;;;;;;;;;;;;;;;;5041552;28;20119;-65
2023/07/23 03:24:12;;;;;;;;;;;;;;;;;;5046009;28;20258;-65
2023/07/23 03:26:38;;;;;;;;;;;;;;;;;;5049506;28;19929;-65
2023/07/23 03:29:04;;;;;;;;;;;;;;;;;;5050031;28;19990;-65
2023/07/23 03:31:29;;;;;;;;;;;;;;;;;;5038141;28;19968;-65
2023/07/23 03:33:55;;;;;;;;;;;;;;;;;;5044547;28;19920;-65
2023/07/23 03:36:21;;;;;;;;;;;;;;;;;;5048288;28;20457;-65
2023/07/23 03:38:47;;;;;;;;;;;;;;;;;;5051946;28;19929;-65
2023/07/23 03:41:13;;;;;;;;;;;;;;;;;;5050694;28;19921;-65
2023/07/23 03:43:39;;;;;;;;;;;;;;;;;;5051856;28;20279;-65
2023/07/23 03:46:05;;;;;;;;;;;;;;;;;;5048085;28;19999;-65
2023/07/23 03:48:31;;;;;;;;;;;;;;;;;;5043352;28;20358;-65
2023/07/23 03:50:57;;;;;;;;;;;;;;;;;;5048794;28;20386;-65
2023/07/23 03:53:23;;;;;;;;;;;;;;;;;;5049163;28;19928;-65
2023/07/23 03:55:48;;;;;;;;;;;;;;;;;;5049635;28;20647;-66
2023/07/23 03:58:14;;;;;;;;;;;;;;;;;;5049628;28;19931;-65
2023/07/23 04:00:41;;;;;;;;;;;;;;;;;;5049250;28;19921;-65
2023/07/23 04:03:07;;;;;;;;;;;;;;;;;;5045885;28;20368;-65
2023/07/23 04:05:33;;;;;;;;;;;;;;;;;;5025771;28;20024;-65
2023/07/23 04:07:59;;;;;;;;;;;;;;;;;;5045994;28;19921;-65
2023/07/23 04:10:25;;;;;;;;;;;;;;;;;;5040284;28;19971;-65
2023/07/23 04:12:51;;;;;;;;;;;;;;;;;;5050274;28;20207;-65
2023/07/23 04:15:17;;;;;;;;;;;;;;;;;;5050267;28;19931;-65
2023/07/23 04:17:43;;;;;;;;;;;;;;;;;;5050381;28;19920;-65
2023/07/23 04:20:08;;;;;;;;;;;;;;;;;;5047005;28;20011;-65
2023/07/23 04:22:34;;;;;;;;;;;;;;;;;;5034448;28;20457;-65
2023/07/23 04:25:00;;;;;;;;;;;;;;;;;;5049897;28;19936;-65
2023/07/23 04:27:26;;;;;;;;;;;;;;;;;;5048925;28;20462;-65
2023/07/23 04:29:53;;;;;;;;;;;;;;;;;;5029368;28;20291;-65
2023/07/23 04:32:19;;;;;;;;;;;;;;;;;;5047266;28;19935;-65
2023/07/23 04:34:45;;;;;;;;;;;;;;;;;;5043838;28;19920;-65
2023/07/23 04:37:13;;;;;;;;;;;;;;;;;;5047298;28;20405;-65
2023/07/23 04:39:39;;;;;;;;;;;;;;;;;;5049968;28;19982;-65
2023/07/23 04:42:05;;;;;;;;;;;;;;;;;;5053577;28;19964;-65
2023/07/23 04:44:31;;;;;;;;;;;;;;;;;;5054868;28;20252;-65
2023/07/23 04:46:57;;;;;;;;;;;;;;;;;;5043865;28;19921;-65
2023/07/23 04:49:22;;;;;;;;;;;;;;;;;;5047775;28;19979;-65
2023/07/23 04:51:48;;;;;;;;;;;;;;;;;;5053896;28;20020;-65
2023/07/23 04:54:14;;;;;;;;;;;;;;;;;;5052694;28;19928;-65
2023/07/23 04:56:40;;;;;;;;;;;;;;;;;;5054039;28;20295;-65
2023/07/23 04:59:07;;;;;;;;;;;;;;;;;;5053449;28;19921;-65
2023/07/23 05:01:33;;;;;;;;;;;;;;;;;;5041948;28;19924;-65
2023/07/23 05:03:59;;;;;;;;;;;;;;;;;;5042704;28;20389;-65
2023/07/23 05:06:25;;;;;;;;;;;;;;;;;;5051948;28;19932;-65
2023/07/23 05:08:50;;;;;;;;;;;;;;;;;;5052112;28;20344;-65
2023/07/23 05:11:16;;;;;;;;;;;;;;;;;;5050959;28;19970;-66
2023/07/23 05:13:42;;;;;;;;;;;;;;;;;;5036832;28;19927;-65
2023/07/23 05:16:09;;;;;;;;;;;;;;;;;;5050862;28;19959;-65
2023/07/23 05:18:35;;;;;;;;;;;;;;;;;;5046762;28;19956;-65
2023/07/23 05:21:01;;;;;;;;;;;;;;;;;;5051368;28;19955;-65
2023/07/23 05:23:26;;;;;;;;;;;;;;;;;;5050595;28;20477;-65
2023/07/23 05:25:52;;;;;;;;;;;;;;;;;;5049178;28;19978;-65
2023/07/23 05:28:19;;;;;;;;;;;;;;;;;;5041068;28;19925;-65
2023/07/23 05:30:44;;;;;;;;;;;;;;;;;;5042808;28;19928;-65
2023/07/23 05:33:10;;;;;;;;;;;;;;;;;;5037870;28;19920;-65
2023/07/23 05:35:36;;;;;;;;;;;;;;;;;;5033158;28;20286;-66
2023/07/23 05:38:03;;;;;;;;;;;;;;;;;;5037474;28;19971;-65
2023/07/23 05:40:30;;;;;;;;;;;;;;;;;;5034659;28;20379;-65
2023/07/23 05:42:56;;;;;;;;;;;;;;;;;;5050120;28;19955;-65
2023/07/23 05:45:22;;;;;;;;;;;;;;;;;;5050422;28;19929;-65
2023/07/23 05:47:48;;;;;;;;;;;;;;;;;;5052695;28;19936;-65
2023/07/23 05:50:14;;;;;;;;;;;;;;;;;;5050299;28;19970;-65
2023/07/23 05:52:39;;;;;;;;;;;;;;;;;;5050669;28;19920;-66
2023/07/23 05:55:06;;;;;;;;;;;;;;;;;;5057887;28;19921;-65
2023/07/23 05:57:32;;;;;;;;;;;;;;;;;;5063305;28;19935;-65
2023/07/23 05:59:58;;;;;;;;;;;;;;;;;;5052985;28;19921;-65
2023/07/23 06:02:24;;;;;;;;;;;;;;;;;;5051406;28;20351;-66
2023/07/23 06:04:49;;;;;;;;;;;;;;;;;;5047451;28;19925;-65
2023/07/23 06:07:15;;;;;;;;;;;;;;;;;;5050094;28;19925;-65
2023/07/23 06:09:41;;;;;;;;;;;;;;;;;;5043702;28;20271;-65
2023/07/23 06:12:07;;;;;;;;;;;;;;;;;;5044964;28;19967;-66
2023/07/23 06:14:33;;;;;;;;;;;;;;;;;;5044034;28;19921;-65
2023/07/23 06:16:59;;;;;;;;;;;;;;;;;;5048171;28;19924;-66
2023/07/23 06:19:25;;;;;;;;;;;;;;;;;;5049897;28;20038;-65
2023/07/23 06:21:51;;;;;;;;;;;;;;;;;;5046453;28;19921;-65
2023/07/23 06:24:17;;;;;;;;;;;;;;;;;;5051203;28;19927;-65
2023/07/23 06:26:43;;;;;;;;;;;;;;;;;;5051319;28;20443;-65
2023/07/23 06:29:09;;;;;;;;;;;;;;;;;;5053154;28;19925;-65
2023/07/23 06:31:34;;;;;;;;;;;;;;;;;;5050659;28;19920;-65
2023/07/23 06:34:00;;;;;;;;;;;;;;;;;;5052136;28;19947;-65
2023/07/23 06:36:26;;;;;;;;;;;;;;;;;;5049832;28;19925;-65
2023/07/23 06:38:52;;;;;;;;;;;;;;;;;;5049918;28;19939;-65
2023/07/23 06:41:18;;;;;;;;;;;;;;;;;;5050545;28;19921;-65
2023/07/23 06:43:44;;;;;;;;;;;;;;;;;;5049590;28;20011;-65
2023/07/23 06:46:16;;;;;;;;;;;;;;;;;;5046724;28;20649;-65
2023/07/23 06:48:42;;;;;;;;;;;;;;;;;;5041418;28;20444;-65
2023/07/23 06:51:08;;;;;;;;;;;;;;;;;;5047728;28;19929;-65
2023/07/23 06:53:34;;;;;;;;;;;;;;;;;;5043321;28;19928;-65
2023/07/23 06:56:00;;;;;;;;;;;;;;;;;;5052422;28;20390;-65
2023/07/23 06:58:26;;;;;;;;;;;;;;;;;;5048237;28;19987;-65
2023/07/23 07:00:52;;;;;;;;;;;;;;;;;;5048291;28;19970;-65
2023/07/23 07:03:18;;;;;;;;;;;;;;;;;;5046152;28;19925;-66
2023/07/23 07:05:44;;;;;;;;;;;;;;;;;;5037967;28;19936;-65
2023/07/23 07:08:09;;;;;;;;;;;;;;;;;;5045457;28;20393;-65
2023/07/23 07:10:35;;;;;;;;;;;;;;;;;;5045183;28;19921;-65
2023/07/23 07:13:01;;;;;;;;;;;;;;;;;;5046978;28;19931;-65
2023/07/23 07:15:27;;;;;;;;;;;;;;;;;;5047870;28;20386;-66
2023/07/23 07:17:53;;;;;;;;;;;;;;;;;;5049631;28;19921;-65
2023/07/23 07:20:19;;;;;;;;;;;;;;;;;;5048093;28;19927;-66
2023/07/23 07:22:45;;;;;;;;;;;;;;;;;;5050958;28;19921;-65
2023/07/23 07:25:11;;;;;;;;;;;;;;;;;;5049752;28;19928;-65
2023/07/23 07:27:36;;;;;;;;;;;;;;;;;;5050919;28;19963;-65
2023/07/23 07:30:03;;;;;;;;;;;;;;;;;;5046937;28;19931;-65
2023/07/23 07:32:29;;;;;;;;;;;;;;;;;;5046556;28;19921;-65
2023/07/23 07:34:55;;;;;;;;;;;;;;;;;;5047583;28;19931;-65
2023/07/23 07:37:21;;;;;;;;;;;;;;;;;;5048185;28;19924;-65
2023/07/23 07:39:47;;;;;;;;;;;;;;;;;;5049814;28;19932;-65
2023/07/23 07:42:13;;;;;;;;;;;;;;;;;;5051081;28;20346;-65
2023/07/23 07:44:38;;;;;;;;;;;;;;;;;;5047568;28;19940;-65
2023/07/23 07:47:04;;;;;;;;;;;;;;;;;;5044741;28;19928;-66
2023/07/23 07:49:30;;;;;;;;;;;;;;;;;;5046139;28;19921;-66
2023/07/23 07:51:56;;;;;;;;;;;;;;;;;;5041538;28;19975;-66
2023/07/23 07:54:22;;;;;;;;;;;;;;;;;;5044576;28;19928;-66
2023/07/23 07:56:49;;;;;;;;;;;;;;;;;;5048656;28;19927;-65
2023/07/23 07:59:15;;;;;;;;;;;;;;;;;;5044023;28;20011;-65
2023/07/23 08:01:41;;;;;;;;;;;;;;;;;;5047582;28;20302;-65
2023/07/23 08:04:07;;;;;;;;;;;;;;;;;;5043670;28;19928;-65
2023/07/23 08:06:33;;;;;;;;;;;;;;;;;;5044344;28;19929;-65
2023/07/23 08:08:59;;;;;;;;;;;;;;;;;;5048076;28;19925;-65
2023/07/23 08:11:25;;;;;;;;;;;;;;;;;;5045346;28;19925;-65
2023/07/23 08:13:51;;;;;;;;;;;;;;;;;;5050455;28;20127;-65
2023/07/23 08:16:17;;;;;;;;;;;;;;;;;;5050694;28;20639;-65
2023/07/23 08:18:44;;;;;;;;;;;;;;;;;;5052819;28;19925;-65
2023/07/23 08:21:11;;;;;;;;;;;;;;;;;;5051362;28;21219;-65
2023/07/23 08:23:37;;;;;;;;;;;;;;;;;;5052563;28;20286;-65
2023/07/23 08:26:03;;;;;;;;;;;;;;;;;;5050163;28;20016;-66
2023/07/23 08:28:29;;;;;;;;;;;;;;;;;;5047046;28;19929;-65
2023/07/23 08:30:56;;;;;;;;;;;;;;;;;;5046428;28;19921;-65
2023/07/23 08:33:22;;;;;;;;;;;;;;;;;;5050498;28;19932;-65
2023/07/23 08:35:48;;;;;;;;;;;;;;;;;;5051848;28;19932;-65
2023/07/23 08:38:15;;;;;;;;;;;;;;;;;;5050358;28;19998;-65
2023/07/23 08:40:41;;;;;;;;;;;;;;;;;;5059274;28;20287;-65
2023/07/23 08:43:07;;;;;;;;;;;;;;;;;;5049482;28;19925;-65
2023/07/23 08:45:33;;;;;;;;;;;;;;;;;;5047954;28;19998;-65
2023/07/23 08:47:59;;;;;;;;;;;;;;;;;;5052030;28;19921;-65
2023/07/23 08:50:25;;;;;;;;;;;;;;;;;;5053284;28;19940;-65
2023/07/23 08:52:50;;;;;;;;;;;;;;;;;;5055617;22;19928;-61
2023/07/23 08:55:16;;;;;;;;;;;;;;;;;;5040852;28;19932;-62
2023/07/23 08:57:42;;;;;;;;;;;;;;;;;;5052193;28;19986;-61
2023/07/23 09:00:09;;;;;;;;;;;;;;;;;;5051156;28;19986;-62
2023/07/23 09:02:35;;;;;;;;;;;;;;;;;;5040027;28;19928;-61
2023/07/23 09:05:01;;;;;;;;;;;;;;;;;;5053563;28;19925;-62
2023/07/23 09:07:26;;;;;;;;;;;;;;;;;;5052940;28;19932;-61
2023/07/23 09:09:52;;;;;;;;;;;;;;;;;;5051693;28;19960;-61
2023/07/23 09:12:18;;;;;;;;;;;;;;;;;;5053258;28;19973;-62
2023/07/23 09:14:44;;;;;;;;;;;;;;;;;;5048827;28;20374;-61
2023/07/23 09:17:10;;;;;;;;;;;;;;;;;;5044239;28;19986;-62
2023/07/23 09:19:36;;;;;;;;;;;;;;;;;;5053022;28;19929;-62
2023/07/23 09:22:02;;;;;;;;;;;;;;;;;;5042903;28;19928;-62
2023/07/23 09:24:28;;;;;;;;;;;;;;;;;;5038651;28;19921;-61
2023/07/23 09:26:54;;;;;;;;;;;;;;;;;;5048847;28;19936;-61
2023/07/23 09:29:20;;;;;;;;;;;;;;;;;;5051525;28;20003;-61
2023/07/23 09:31:49;;;;;;;;;;;;;;;;;;5038965;28;19921;-62
2023/07/23 09:34:15;;;;;;;;;;;;;;;;;;5038618;28;19921;-62
2023/07/23 09:36:41;;;;;;;;;;;;;;;;;;5051410;28;19924;-62
2023/07/23 09:39:07;;;;;;;;;;;;;;;;;;5044768;28;20381;-61
2023/07/23 09:41:33;;;;;;;;;;;;;;;;;;5047128;28;20012;-61
2023/07/23 09:43:59;;;;;;;;;;;;;;;;;;5042101;28;20488;-61
2023/07/23 09:46:24;;;;;;;;;;;;;;;;;;5043026;28;19929;-61
2023/07/23 09:48:50;;;;;;;;;;;;;;;;;;5044718;28;19929;-62
2023/07/23 09:51:16;;;;;;;;;;;;;;;;;;5041892;28;20329;-62
2023/07/23 09:53:45;;;;;;;;;;;;;;;;;;5041052;28;20040;-61
2023/07/23 09:56:11;;;;;;;;;;;;;;;;;;5047948;28;19931;-62
2023/07/23 09:58:37;;;;;;;;;;;;;;;;;;5043373;28;19921;-62
2023/07/23 10:01:03;;;;;;;;;;;;;;;;;;5043517;28;20398;-62
2023/07/23 10:03:29;;;;;;;;;;;;;;;;;;5052433;28;19928;-61
2023/07/23 10:05:55;;;;;;;;;;;;;;;;;;5050095;28;19943;-62
2023/07/23 10:08:21;;;;;;;;;;;;;;;;;;5053124;28;19925;-62
2023/07/23 10:10:47;;;;;;;;;;;;;;;;;;5053605;28;19927;-61
2023/07/23 10:13:12;;;;;;;;;;;;;;;;;;5033832;28;20721;-61
2023/07/23 10:15:38;;;;;;;;;;;;;;;;;;5033095;28;19975;-62
2023/07/23 10:18:04;;;;;;;;;;;;;;;;;;5038142;28;19921;-62
2023/07/23 10:20:31;;;;;;;;;;;;;;;;;;5043951;28;19974;-62
2023/07/23 10:22:57;;;;;;;;;;;;;;;;;;5044746;28;19931;-62
2023/07/23 10:25:26;;;;;;;;;;;;;;;;;;5035911;28;19929;-62
2023/07/23 10:27:52;;;;;;;;;;;;;;;;;;5032464;28;19987;-62
2023/07/23 10:30:18;;;;;;;;;;;;;;;;;;5032120;28;20386;-62
2023/07/23 10:32:44;;;;;;;;;;;;;;;;;;5039435;28;19925;-62
2023/07/23 10:35:10;;;;;;;;;;;;;;;;;;5048275;28;19983;-61
2023/07/23 10:37:36;;;;;;;;;;;;;;;;;;5051001;28;20259;-61
2023/07/23 10:40:03;;;;;;;;;;;;;;;;;;5051164;28;20332;-61
2023/07/23 10:42:29;;;;;;;;;;;;;;;;;;5039091;28;20011;-62
2023/07/23 10:44:55;;;;;;;;;;;;;;;;;;5044566;28;19933;-61
2023/07/23 10:47:21;;;;;;;;;;;;;;;;;;5041238;28;20299;-61
2023/07/23 10:49:47;;;;;;;;;;;;;;;;;;5041678;28;19981;-61
2023/07/23 10:52:13;;;;;;;;;;;;;;;;;;5046345;28;19929;-62
2023/07/23 10:54:39;;;;;;;;;;;;;;;;;;5039465;28;19974;-61
2023/07/23 10:57:05;;;;;;;;;;;;;;;;;;5047575;28;19928;-61
2023/07/23 10:59:38;;;;;;;;;;;;;;;;;;5109593;27;20385;-61
2023/07/23 11:02:05;;;;;;;;;;;;;;;;;;5109555;28;19927;-61
2023/07/23 11:04:31;;;;;;;;;;;;;;;;;;5088454;28;19921;-61
2023/07/23 11:06:57;;;;;;;;;;;;;;;;;;5089176;28;20379;-61
2023/07/23 11:09:22;;;;;;;;;;;;;;;;;;5084338;28;19920;-61
2023/07/23 11:11:49;;;;;;;;;;;;;;;;;;5087174;28;19967;-61
2023/07/23 11:14:15;;;;;;;;;;;;;;;;;;5080827;28;20327;-61
2023/07/23 11:16:41;;;;;;;;;;;;;;;;;;5073069;28;20319;-61
2023/07/23 11:19:07;;;;;;;;;;;;;;;;;;5086597;28;20333;-61
2023/07/23 11:21:33;;;;;;;;;;;;;;;;;;5075040;28;20456;-61
2023/07/23 11:23:59;;;;;;;;;;;;;;;;;;5085846;28;19977;-61
2023/07/23 11:26:25;;;;;;;;;;;;;;;;;;5083642;28;19920;-61
2023/07/23 11:28:51;;;;;;;;;;;;;;;;;;5080413;28;20404;-61
2023/07/23 11:31:17;;;;;;;;;;;;;;;;;;5071271;28;19921;-61
2023/07/23 11:33:43;;;;;;;;;;;;;;;;;;5073721;28;19931;-61
2023/07/23 11:36:09;;;;;;;;;;;;;;;;;;5090104;28;19920;-61
2023/07/23 11:38:35;;;;;;;;;;;;;;;;;;5080694;28;19932;-61
2023/07/23 11:41:01;;;;;;;;;;;;;;;;;;5105032;27;19925;-61
2023/07/23 11:43:27;;;;;;;;;;;;;;;;;;5079446;28;20023;-61
2023/07/23 11:45:53;;;;;;;;;;;;;;;;;;5074804;28;20015;-61
2023/07/23 11:48:20;;;;;;;;;;;;;;;;;;5106376;28;20424;-61
2023/07/23 11:50:46;;;;;;;;;;;;;;;;;;5103749;28;20535;-61
2023/07/23 11:53:12;;;;;;;;;;;;;;;;;;5084065;28;19928;-61
2023/07/23 11:55:38;;;;;;;;;;;;;;;;;;5065939;28;19948;-61
2023/07/23 11:58:04;;;;;;;;;;;;;;;;;;5079497;28;20289;-61
2023/07/23 12:00:30;;;;;;;;;;;;;;;;;;5096807;28;19924;-61
2023/07/23 12:02:56;;;;;;;;;;;;;;;;;;5090429;28;19951;-61
2023/07/23 12:05:21;;;;;;;;;;;;;;;;;;5094521;28;19950;-61
2023/07/23 12:07:47;;;;;;;;;;;;;;;;;;5100809;28;19920;-61
2023/07/23 12:10:14;;;;;;;;;;;;;;;;;;5080476;28;19958;-61
2023/07/23 12:12:39;;;;;;;;;;;;;;;;;;5079717;28;19929;-61
2023/07/23 12:15:05;;;;;;;;;;;;;;;;;;5075482;28;20445;-61
2023/07/23 12:17:31;;;;;;;;;;;;;;;;;;5085318;28;20065;-61
2023/07/23 12:19:57;;;;;;;;;;;;;;;;;;5082896;28;19927;-61
2023/07/23 12:22:24;;;;;;;;;;;;;;;;;;5092567;28;19924;-61
2023/07/23 12:24:50;;;;;;;;;;;;;;;;;;5090647;28;19928;-61
2023/07/23 12:27:16;;;;;;;;;;;;;;;;;;5088092;28;19920;-61
2023/07/23 12:29:42;;;;;;;;;;;;;;;;;;5080675;28;19924;-62
2023/07/23 12:32:11;;;;;;;;;;;;;;;;;;5080857;28;19942;-61
2023/07/23 12:34:37;;;;;;;;;;;;;;;;;;5090221;28;20002;-61
2023/07/23 12:37:03;;;;;;;;;;;;;;;;;;5091625;28;19924;-62
2023/07/23 12:39:29;;;;;;;;;;;;;;;;;;5092231;28;19928;-61
2023/07/23 12:41:55;;;;;;;;;;;;;;;;;;5091128;28;19959;-62
2023/07/23 12:44:21;;;;;;;;;;;;;;;;;;5092065;28;19920;-61
2023/07/23 12:46:47;;;;;;;;;;;;;;;;;;5077193;28;19924;-62
2023/07/23 12:49:13;;;;;;;;;;;;;;;;;;5091387;28;19969;-61
2023/07/23 12:51:39;;;;;;;;;;;;;;;;;;5083188;28;19924;-61
2023/07/23 12:54:05;;;;;;;;;;;;;;;;;;5078210;28;19920;-61
2023/07/23 12:56:30;;;;;;;;;;;;;;;;;;5080434;28;19968;-61
2023/07/23 12:58:56;;;;;;;;;;;;;;;;;;5075730;28;20023;-61
2023/07/23 13:01:22;;;;;;;;;;;;;;;;;;5081759;28;19920;-61
2023/07/23 13:03:48;;;;;;;;;;;;;;;;;;5080288;28;19927;-61
2023/07/23 13:06:14;;;;;;;;;;;;;;;;;;5078249;28;19927;-61
2023/07/23 13:08:40;;;;;;;;;;;;;;;;;;5088316;28;19924;-61
2023/07/23 13:11:07;;;;;;;;;;;;;;;;;;5077433;28;19960;-61
2023/07/23 13:13:32;;;;;;;;;;;;;;;;;;5073257;28;19920;-61
2023/07/23 13:15:58;;;;;;;;;;;;;;;;;;5093073;28;19925;-61
2023/07/23 13:18:24;;;;;;;;;;;;;;;;;;5079347;28;19928;-61
2023/07/23 13:20:50;;;;;;;;;;;;;;;;;;5074831;28;20024;-61
2023/07/23 13:23:16;;;;;;;;;;;;;;;;;;5085294;28;19924;-61
2023/07/23 13:25:42;;;;;;;;;;;;;;;;;;5078996;28;19924;-62
2023/07/23 13:28:08;;;;;;;;;;;;;;;;;;5079517;28;19920;-61
2023/07/23 13:30:34;;;;;;;;;;;;;;;;;;5078897;28;20014;-61
2023/07/23 13:33:00;;;;;;;;;;;;;;;;;;5083935;28;19935;-62
2023/07/23 13:35:29;;;;;;;;;;;;;;;;;;5087376;28;19928;-61
2023/07/23 13:37:54;;;;;;;;;;;;;;;;;;5078129;28;19931;-61
2023/07/23 13:40:20;;;;;;;;;;;;;;;;;;5079242;28;20265;-61
2023/07/23 13:42:46;;;;;;;;;;;;;;;;;;5078700;28;19971;-61
2023/07/23 13:45:12;;;;;;;;;;;;;;;;;;5076882;28;19924;-61
2023/07/23 13:47:38;;;;;;;;;;;;;;;;;;5076528;28;19976;-62
2023/07/23 13:50:04;;;;;;;;;;;;;;;;;;5080551;28;19928;-61
2023/07/23 13:52:30;;;;;;;;;;;;;;;;;;5087628;28;20671;-61
2023/07/23 13:54:56;;;;;;;;;;;;;;;;;;5076189;28;19995;-61
2023/07/23 13:57:22;;;;;;;;;;;;;;;;;;5083673;28;19924;-62
2023/07/23 13:59:48;;;;;;;;;;;;;;;;;;5086907;28;19934;-61
2023/07/23 14:02:14;;;;;;;;;;;;;;;;;;5079104;28;19924;-61
2023/07/23 14:04:40;;;;;;;;;;;;;;;;;;5096054;28;20333;-61
2023/07/23 14:07:05;;;;;;;;;;;;;;;;;;5073287;28;19931;-61
2023/07/23 14:09:31;;;;;;;;;;;;;;;;;;5084861;28;19962;-61
2023/07/23 14:11:57;;;;;;;;;;;;;;;;;;5070398;28;19928;-61
2023/07/23 14:14:23;;;;;;;;;;;;;;;;;;5071192;28;20022;-61
2023/07/23 14:16:49;;;;;;;;;;;;;;;;;;5070658;28;19925;-62
2023/07/23 14:19:15;;;;;;;;;;;;;;;;;;5069278;28;19927;-61
2023/07/23 14:21:41;;;;;;;;;;;;;;;;;;5071766;28;19928;-61
2023/07/23 14:24:07;;;;;;;;;;;;;;;;;;5072063;28;19924;-61
2023/07/23 14:26:33;;;;;;;;;;;;;;;;;;5088057;28;19974;-62
2023/07/23 14:28:59;;;;;;;;;;;;;;;;;;5070759;28;19948;-61
2023/07/23 14:31:25;;;;;;;;;;;;;;;;;;5072902;28;19920;-61
2023/07/23 14:33:51;;;;;;;;;;;;;;;;;;5075462;28;20029;-61
2023/07/23 14:36:16;;;;;;;;;;;;;;;;;;5062510;28;20325;-62
2023/07/23 14:38:42;;;;;;;;;;;;;;;;;;5070580;28;19928;-61
2023/07/23 14:41:08;;;;;;;;;;;;;;;;;;5071911;28;19932;-61
2023/07/23 14:43:34;;;;;;;;;;;;;;;;;;5072990;28;19935;-61
2023/07/23 14:46:00;;;;;;;;;;;;;;;;;;5085363;28;19932;-61
2023/07/23 14:48:26;;;;;;;;;;;;;;;;;;5083545;28;20270;-61
2023/07/23 14:50:52;;;;;;;;;;;;;;;;;;5071430;28;20053;-61
2023/07/23 14:53:18;;;;;;;;;;;;;;;;;;5079353;28;20992;-61
2023/07/23 14:55:44;;;;;;;;;;;;;;;;;;5072819;28;19929;-61
2023/07/23 14:58:12;;;;;;;;;;;;;;;;;;5082894;28;19963;-61
2023/07/23 15:00:40;;;;;;;;;;;;;;;;;;5053239;28;19928;-61
2023/07/23 15:03:06;;;;;;;;;;;;;;;;;;5088239;28;19989;-62
2023/07/23 15:05:32;;;;;;;;;;;;;;;;;;5077619;28;20460;-61
2023/07/23 15:07:58;;;;;;;;;;;;;;;;;;5076272;28;19924;-61
2023/07/23 15:10:24;;;;;;;;;;;;;;;;;;5084994;28;19955;-61
2023/07/23 15:12:50;;;;;;;;;;;;;;;;;;5089480;28;19931;-61
2023/07/23 15:15:15;;;;;;;;;;;;;;;;;;5085930;28;19925;-61
2023/07/23 15:17:41;;;;;;;;;;;;;;;;;;5081082;28;19928;-61
2023/07/23 15:20:07;;;;;;;;;;;;;;;;;;5073589;28;19920;-61
2023/07/23 15:22:33;;;;;;;;;;;;;;;;;;5076577;28;19924;-61
2023/07/23 15:24:59;;;;;;;;;;;;;;;;;;5076240;28;19931;-62
2023/07/23 15:27:25;;;;;;;;;;;;;;;;;;5073213;28;19924;-61
2023/07/23 15:29:51;;;;;;;;;;;;;;;;;;5087640;28;19924;-61
2023/07/23 15:32:17;;;;;;;;;;;;;;;;;;5073538;28;20062;-61
2023/07/23 15:34:44;;;;;;;;;;;;;;;;;;5078377;28;19924;-61
2023/07/23 15:37:09;;;;;;;;;;;;;;;;;;5080197;28;19926;-61
2023/07/23 15:39:35;;;;;;;;;;;;;;;;;;5068391;28;19929;-61
2023/07/23 15:42:01;;;;;;;;;;;;;;;;;;5087747;28;20510;-62
2023/07/23 15:44:27;;;;;;;;;;;;;;;;;;5073219;28;19929;-61
2023/07/23 15:46:53;;;;;;;;;;;;;;;;;;5093746;28;19982;-62
2023/07/23 15:49:19;;;;;;;;;;;;;;;;;;5079796;28;19920;-62
2023/07/23 15:51:45;;;;;;;;;;;;;;;;;;5094449;28;19920;-62
2023/07/23 15:54:11;;;;;;;;;;;;;;;;;;5096933;28;19920;-61
2023/07/23 15:56:37;;;;;;;;;;;;;;;;;;5086946;28;19924;-61
2023/07/23 15:59:03;;;;;;;;;;;;;;;;;;5087786;28;19924;-61
2023/07/23 16:01:29;;;;;;;;;;;;;;;;;;5077718;28;19924;-61
2023/07/23 16:03:55;;;;;;;;;;;;;;;;;;5082583;28;20050;-61
2023/07/23 16:06:21;;;;;;;;;;;;;;;;;;5100870;28;20496;-61
2023/07/23 16:08:46;;;;;;;;;;;;;;;;;;5096467;28;19921;-61
2023/07/23 16:11:12;;;;;;;;;;;;;;;;;;5082776;28;19930;-61
2023/07/23 16:13:38;;;;;;;;;;;;;;;;;;5104102;28;19924;-61
2023/07/23 16:16:05;;;;;;;;;;;;;;;;;;5089826;28;19920;-61
2023/07/23 16:18:31;;;;;;;;;;;;;;;;;;5088083;28;19928;-61
2023/07/23 16:20:57;;;;;;;;;;;;;;;;;;5100211;28;19928;-61
2023/07/23 16:23:23;;;;;;;;;;;;;;;;;;5090912;28;19921;-61
2023/07/23 16:25:49;;;;;;;;;;;;;;;;;;5083755;28;19928;-61
2023/07/23 16:28:15;;;;;;;;;;;;;;;;;;5089824;28;19924;-62
2023/07/23 16:30:41;;;;;;;;;;;;;;;;;;5079110;28;19971;-61
2023/07/23 16:33:07;;;;;;;;;;;;;;;;;;5085265;28;20296;-61
2023/07/23 16:35:32;;;;;;;;;;;;;;;;;;5086899;28;19921;-61
2023/07/23 16:37:58;;;;;;;;;;;;;;;;;;5071944;28;19928;-61